createdAt,value
2023-04-24T00:00:13.281Z,98930.25
2023-04-24T00:02:41.449Z,98922.97
2023-04-24T00:05:10.937Z,98925.78
2023-04-24T00:07:38.689Z,98931.75
2023-04-24T00:10:07.251Z,98926.25
2023-04-24T00:12:35.297Z,98917.72
2023-04-24T00:15:03.100Z,98923.47
2023-04-24T00:17:31.507Z,98916.81
2023-04-24T00:20:00.162Z,98919.00
2023-04-24T00:22:30.009Z,98918.56
2023-04-24T00:24:57.787Z,98911.56
2023-04-24T00:27:25.753Z,98904.50
2023-04-24T00:29:53.444Z,98904.19
2023-04-24T00:32:21.233Z,98897.06
2023-04-24T00:34:49.073Z,98901.75
2023-04-24T00:37:17.177Z,98894.81
2023-04-24T00:39:46.202Z,98892.34
2023-04-24T00:42:14.064Z,98891.91
2023-04-24T00:44:41.881Z,98889.78
2023-04-24T00:47:09.707Z,98897.00
2023-04-24T00:49:37.451Z,98898.56
2023-04-24T00:52:08.445Z,98887.34
2023-04-24T00:54:36.103Z,98888.06
2023-04-24T00:57:05.977Z,98885.50
2023-04-24T00:59:34.164Z,98886.06
2023-04-24T01:02:01.950Z,98880.13
2023-04-24T01:04:30.519Z,98879.44
2023-04-24T01:06:58.959Z,98883.03
2023-04-24T01:09:27.157Z,98866.31
2023-04-24T01:11:54.984Z,98876.69
2023-04-24T01:14:25.677Z,98869.00
2023-04-24T01:16:53.210Z,98867.38
2023-04-24T01:19:22.031Z,98866.44
2023-04-24T01:21:52.823Z,98864.44
2023-04-24T01:24:23.266Z,98856.72
2023-04-24T01:26:50.915Z,98857.38
2023-04-24T01:29:18.517Z,98841.81
2023-04-24T01:31:46.613Z,98848.94
2023-04-24T01:34:18.097Z,98857.38
2023-04-24T01:36:47.822Z,98860.88
2023-04-24T01:39:16.609Z,98858.06
2023-04-24T01:41:45.590Z,98857.16
2023-04-24T01:44:13.653Z,98868.34
2023-04-24T01:46:41.439Z,98864.50
2023-04-24T01:49:09.112Z,98858.88
2023-04-24T01:51:36.894Z,98862.75
2023-04-24T01:54:06.264Z,98859.00
2023-04-24T01:56:35.888Z,98855.38
2023-04-24T01:59:05.472Z,98865.78
2023-04-24T02:01:37.909Z,98851.06
2023-04-24T02:04:05.986Z,98855.72
2023-04-24T02:06:33.871Z,98851.06
2023-04-24T02:09:01.857Z,98852.34
2023-04-24T02:11:30.488Z,98846.59
2023-04-24T02:13:58.197Z,98855.84
2023-04-24T02:16:28.338Z,98849.91
2023-04-24T02:18:56.336Z,98862.38
2023-04-24T02:21:23.917Z,98859.94
2023-04-24T02:23:51.562Z,98859.00
2023-04-24T02:26:19.504Z,98849.31
2023-04-24T02:28:47.179Z,98849.66
2023-04-24T02:31:14.953Z,98854.09
2023-04-24T02:33:43.927Z,98849.22
2023-04-24T02:36:12.712Z,98857.84
2023-04-24T02:38:40.314Z,98852.41
2023-04-24T02:41:08.320Z,98849.00
2023-04-24T02:43:35.892Z,98848.88
2023-04-24T02:46:06.328Z,98851.94
2023-04-24T02:48:34.067Z,98852.34
2023-04-24T02:51:03.381Z,98861.59
2023-04-24T02:53:31.881Z,98864.56
2023-04-24T02:55:59.752Z,98874.81
2023-04-24T02:58:27.330Z,98864.63
2023-04-24T03:00:56.248Z,98874.53
2023-04-24T03:03:24.808Z,98876.75
2023-04-24T03:05:52.701Z,98869.19
2023-04-24T03:08:21.729Z,98870.84
2023-04-24T03:10:49.345Z,98871.56
2023-04-24T03:13:17.580Z,98872.78
2023-04-24T03:15:45.950Z,98870.13
2023-04-24T03:18:13.587Z,98876.13
2023-04-24T03:20:41.333Z,98875.97
2023-04-24T03:23:09.049Z,98881.00
2023-04-24T03:25:38.009Z,98881.81
2023-04-24T03:28:05.751Z,98877.81
2023-04-24T03:30:33.368Z,98881.47
2023-04-24T03:33:01.251Z,98888.91
2023-04-24T03:35:28.960Z,98886.34
2023-04-24T03:37:56.640Z,98890.56
2023-04-24T03:40:24.342Z,98893.13
2023-04-24T03:42:53.297Z,98898.25
2023-04-24T03:45:21.141Z,98903.38
2023-04-24T03:47:48.806Z,98901.09
2023-04-24T03:50:16.550Z,98911.28
2023-04-24T03:52:44.130Z,98908.09
2023-04-24T03:55:14.318Z,98902.81
2023-04-24T03:57:42.221Z,98911.09
2023-04-24T04:00:12.862Z,98912.16
2023-04-24T04:02:40.572Z,98918.81
2023-04-24T04:05:09.008Z,98919.91
2023-04-24T04:07:36.710Z,98920.31
2023-04-24T04:10:04.737Z,98923.34
2023-04-24T04:12:32.364Z,98927.19
2023-04-24T04:15:00.208Z,98924.84
2023-04-24T04:17:29.184Z,98932.81
2023-04-24T04:19:58.386Z,98937.72
2023-04-24T04:22:25.945Z,98942.63
2023-04-24T04:24:53.909Z,98938.53
2023-04-24T04:27:22.373Z,98949.59
2023-04-24T04:29:49.960Z,98948.13
2023-04-24T04:32:18.007Z,98953.09
2023-04-24T04:34:47.339Z,98953.69
2023-04-24T04:37:15.604Z,98944.66
2023-04-24T04:39:43.458Z,98951.88
2023-04-24T04:42:11.455Z,98953.75
2023-04-24T04:44:40.800Z,98959.19
2023-04-24T04:47:09.714Z,98962.34
2023-04-24T04:49:37.944Z,98960.31
2023-04-24T04:52:06.975Z,98958.84
2023-04-24T04:54:34.717Z,98963.66
2023-04-24T04:57:04.322Z,98967.81
2023-04-24T04:59:32.014Z,98967.59
2023-04-24T05:01:59.569Z,98965.16
2023-04-24T05:04:27.708Z,98972.69
2023-04-24T05:06:55.484Z,98980.56
2023-04-24T05:09:24.781Z,98987.22
2023-04-24T05:11:52.546Z,98984.00
2023-04-24T05:14:20.387Z,98977.72
2023-04-24T05:16:48.161Z,98986.88
2023-04-24T05:19:15.880Z,98987.00
2023-04-24T05:21:43.554Z,98994.81
2023-04-24T05:24:11.160Z,98995.94
2023-04-24T05:26:40.092Z,98992.25
2023-04-24T05:29:07.992Z,98999.94
2023-04-24T05:31:35.788Z,99001.25
2023-04-24T05:34:03.529Z,99003.78
2023-04-24T05:36:31.839Z,98993.47
2023-04-24T05:38:59.571Z,98998.75
2023-04-24T05:41:27.284Z,99012.94
2023-04-24T05:43:56.321Z,99008.09
2023-04-24T05:46:24.171Z,99002.28
2023-04-24T05:48:51.982Z,99012.03
2023-04-24T05:51:19.770Z,99013.34
2023-04-24T05:53:47.330Z,99028.78
2023-04-24T05:56:15.109Z,99023.97
2023-04-24T05:58:42.730Z,99008.59
2023-04-24T06:01:11.872Z,99014.06
2023-04-24T06:03:40.350Z,99011.06
2023-04-24T06:06:08.380Z,99014.25
2023-04-24T06:08:36.226Z,99008.50
2023-04-24T06:11:04.751Z,99003.44
2023-04-24T06:13:32.545Z,98998.97
2023-04-24T06:16:00.223Z,99004.84
2023-04-24T06:18:29.342Z,99009.31
2023-04-24T06:20:57.082Z,99016.38
2023-04-24T06:23:41.105Z,99018.28
2023-04-24T06:26:27.661Z,99022.34
2023-04-24T06:29:01.728Z,99019.38
2023-04-24T06:31:29.740Z,99025.72
2023-04-24T06:34:00.977Z,99033.44
2023-04-24T06:36:29.283Z,99040.63
2023-04-24T06:38:59.849Z,99033.84
2023-04-24T06:41:28.373Z,99044.41
2023-04-24T06:44:02.101Z,99029.50
2023-04-24T06:46:30.802Z,99034.13
2023-04-24T06:49:03.719Z,99036.03
2023-04-24T06:51:48.676Z,99041.19
2023-04-24T06:54:16.596Z,99041.91
2023-04-24T06:59:36.951Z,99037.53
2023-04-24T07:02:08.661Z,99028.72
2023-04-24T07:04:37.779Z,99034.88
2023-04-24T07:07:06.733Z,99030.44
2023-04-24T07:09:36.303Z,99039.50
2023-04-24T07:12:04.068Z,99032.00
2023-04-24T07:14:31.748Z,99021.34
2023-04-24T07:16:59.718Z,99022.81
2023-04-24T07:19:27.365Z,99026.59
2023-04-24T07:21:56.851Z,99022.66
2023-04-24T07:24:26.710Z,99028.38
2023-04-24T07:26:55.518Z,99023.97
2023-04-24T07:29:23.154Z,99022.00
2023-04-24T07:31:50.956Z,99022.38
2023-04-24T07:34:24.572Z,99018.69
2023-04-24T07:36:52.467Z,99020.34
2023-04-24T07:39:21.977Z,99014.16
2023-04-24T07:41:49.612Z,99014.72
2023-04-24T07:44:17.328Z,99010.19
2023-04-24T07:46:45.234Z,99013.22
2023-04-24T07:49:14.088Z,99010.78
2023-04-24T07:51:43.144Z,99004.03
2023-04-24T07:54:12.759Z,99016.09
2023-04-24T07:56:43.988Z,99031.41
2023-04-24T07:59:12.824Z,99027.25
2023-04-24T08:01:40.557Z,99032.94
2023-04-24T08:04:08.844Z,99044.34
2023-04-24T08:06:36.980Z,99036.75
2023-04-24T08:09:05.377Z,99036.06
2023-04-24T08:11:34.781Z,99038.59
2023-04-24T08:14:03.811Z,99038.19
2023-04-24T08:16:31.586Z,99036.59
2023-04-24T08:18:59.560Z,99041.19
2023-04-24T08:21:28.168Z,99044.16
2023-04-24T08:23:55.858Z,99063.69
2023-04-24T08:26:23.527Z,99061.25
2023-04-24T08:28:51.566Z,99052.81
2023-04-24T08:31:21.568Z,99056.66
2023-04-24T08:33:49.621Z,99063.31
2023-04-24T08:36:17.263Z,99072.03
2023-04-24T08:38:47.333Z,99065.81
2023-04-24T08:41:16.834Z,99076.84
2023-04-24T08:43:44.844Z,99068.19
2023-04-24T08:46:14.814Z,99081.91
2023-04-24T08:48:44.352Z,99080.75
2023-04-24T08:51:12.343Z,99085.66
2023-04-24T08:53:40.286Z,99088.94
2023-04-24T08:56:08.759Z,99096.81
2023-04-24T08:58:37.690Z,99094.53
2023-04-24T09:01:06.643Z,99097.22
2023-04-24T09:03:35.422Z,99099.84
2023-04-24T09:06:04.858Z,99104.00
2023-04-24T09:08:33.113Z,99105.84
2023-04-24T09:11:03.341Z,99118.25
2023-04-24T09:13:32.127Z,99121.38
2023-04-24T09:16:01.284Z,99120.34
2023-04-24T09:18:29.169Z,99121.69
2023-04-24T09:21:01.159Z,99128.53
2023-04-24T09:23:31.434Z,99117.56
2023-04-24T09:26:01.031Z,99129.28
2023-04-24T09:28:34.216Z,99128.88
2023-04-24T09:31:12.508Z,99152.47
2023-04-24T09:33:40.286Z,99159.31
2023-04-24T09:36:08.177Z,99157.44
2023-04-24T09:38:38.620Z,99163.59
2023-04-24T09:41:07.890Z,99172.03
2023-04-24T09:43:36.445Z,99170.31
2023-04-24T09:46:08.360Z,99174.41
2023-04-24T09:48:37.268Z,99177.00
2023-04-24T09:51:07.953Z,99182.34
2023-04-24T09:53:37.033Z,99180.97
2023-04-24T09:56:08.781Z,99178.25
2023-04-24T09:58:37.042Z,99179.47
2023-04-24T10:01:05.501Z,99181.78
2023-04-24T10:03:34.290Z,99184.47
2023-04-24T10:06:04.439Z,99194.00
2023-04-24T10:08:37.718Z,99198.41
2023-04-24T10:11:05.748Z,99189.75
2023-04-24T10:13:34.817Z,99192.41
2023-04-24T10:16:03.032Z,99193.47
2023-04-24T10:18:31.843Z,99197.28
2023-04-24T10:21:00.292Z,99204.50
2023-04-24T10:23:28.061Z,99209.16
2023-04-24T10:25:57.804Z,99217.22
2023-04-24T10:28:29.035Z,99226.53
2023-04-24T10:30:57.431Z,99218.91
2023-04-24T10:33:26.124Z,99224.19
2023-04-24T10:35:54.689Z,99241.25
2023-04-24T10:38:26.898Z,99243.44
2023-04-24T10:41:08.534Z,99249.53
2023-04-24T10:43:36.252Z,99254.31
2023-04-24T10:46:05.793Z,99249.88
2023-04-24T10:48:34.356Z,99261.94
2023-04-24T10:51:01.969Z,99266.56
2023-04-24T10:53:31.310Z,99263.84
2023-04-24T10:56:07.350Z,99267.94
2023-04-24T10:58:41.174Z,99271.63
2023-04-24T11:01:09.280Z,99269.56
2023-04-24T11:03:38.481Z,99279.66
2023-04-24T11:06:07.711Z,99284.00
2023-04-24T11:08:39.981Z,99284.81
2023-04-24T11:11:13.607Z,99291.00
2023-04-24T11:14:03.892Z,99281.66
2023-04-24T11:16:34.725Z,99279.03
2023-04-24T11:19:03.568Z,99278.44
2023-04-24T11:21:34.354Z,99283.63
2023-04-24T11:24:29.883Z,99276.00
2023-04-24T11:27:02.522Z,99272.88
2023-04-24T11:30:01.893Z,99273.47
2023-04-24T11:32:31.367Z,99268.63
2023-04-24T11:35:00.394Z,99262.44
2023-04-24T11:37:29.792Z,99268.00
2023-04-24T11:39:59.471Z,99278.38
2023-04-24T11:42:30.463Z,99271.44
2023-04-24T11:44:58.354Z,99275.34
2023-04-24T11:47:36.898Z,99270.13
2023-04-24T11:50:06.780Z,99264.94
2023-04-24T11:52:38.541Z,99273.63
2023-04-24T11:55:08.732Z,99267.78
2023-04-24T11:57:37.874Z,99270.84
2023-04-24T12:00:07.782Z,99272.97
2023-04-24T12:02:38.211Z,99270.84
2023-04-24T12:05:08.921Z,99267.00
2023-04-24T12:07:43.691Z,99275.00
2023-04-24T12:10:12.054Z,99274.22
2023-04-24T12:12:40.922Z,99278.78
2023-04-24T12:15:10.313Z,99276.25
2023-04-24T12:17:38.828Z,99285.56
2023-04-24T12:20:09.640Z,99275.75
2023-04-24T12:22:48.231Z,99292.72
2023-04-24T12:25:19.074Z,99300.28
2023-04-24T12:27:48.974Z,99308.59
2023-04-24T12:30:18.479Z,99311.56
2023-04-24T12:32:49.267Z,99314.34
2023-04-24T12:35:21.867Z,99328.88
2023-04-24T12:37:49.761Z,99326.50
2023-04-24T12:40:18.839Z,99330.97
2023-04-24T12:42:49.666Z,99321.00
2023-04-24T12:45:18.342Z,99315.72
2023-04-24T12:47:47.404Z,99322.03
2023-04-24T12:50:16.455Z,99322.56
2023-04-24T12:52:45.221Z,99319.56
2023-04-24T12:55:13.269Z,99315.63
2023-04-24T12:57:41.888Z,99324.41
2023-04-24T13:00:12.117Z,99314.44
2023-04-24T13:02:40.360Z,99310.75
2023-04-24T13:05:08.627Z,99317.59
2023-04-24T13:07:36.349Z,99315.72
2023-04-24T13:10:04.121Z,99304.19
2023-04-24T13:12:31.882Z,99314.50
2023-04-24T13:14:59.794Z,99309.13
2023-04-24T13:17:28.920Z,99309.91
2023-04-24T13:19:57.375Z,99316.56
2023-04-24T13:22:25.995Z,99293.75
2023-04-24T13:24:53.841Z,99304.25
2023-04-24T13:27:21.907Z,99294.75
2023-04-24T13:29:49.648Z,99298.41
2023-04-24T13:32:17.569Z,99310.41
2023-04-24T13:34:46.760Z,99309.22
2023-04-24T13:37:14.406Z,99316.06
2023-04-24T13:39:43.088Z,99321.22
2023-04-24T13:42:10.804Z,99312.47
2023-04-24T13:44:38.679Z,99318.50
2023-04-24T13:47:06.711Z,99318.31
2023-04-24T13:49:34.617Z,99329.66
2023-04-24T13:52:04.471Z,99331.09
2023-04-24T13:54:32.059Z,99335.69
2023-04-24T13:56:59.994Z,99332.38
2023-04-24T13:59:27.889Z,99333.09
2023-04-24T14:01:55.772Z,99338.91
2023-04-24T14:04:23.745Z,99339.72
2023-04-24T14:06:52.002Z,99332.25
2023-04-24T14:09:20.938Z,99341.09
2023-04-24T14:11:48.700Z,99339.50
2023-04-24T14:14:17.185Z,99333.91
2023-04-24T14:16:44.914Z,99335.31
2023-04-24T14:19:12.502Z,99326.16
2023-04-24T14:21:40.278Z,99330.47
2023-04-24T14:24:17.925Z,99329.63
2023-04-24T14:26:48.215Z,99326.44
2023-04-24T14:29:16.217Z,99323.28
2023-04-24T14:31:44.116Z,99330.44
2023-04-24T14:34:12.870Z,99326.31
2023-04-24T14:36:41.075Z,99323.06
2023-04-24T14:39:12.131Z,99316.75
2023-04-24T14:41:47.292Z,99319.63
2023-04-24T14:44:16.576Z,99312.78
2023-04-24T14:47:00.303Z,99314.84
2023-04-24T14:49:28.474Z,99320.66
2023-04-24T14:51:56.437Z,99316.53
2023-04-24T14:54:24.841Z,99320.47
2023-04-24T14:56:52.687Z,99323.13
2023-04-24T14:59:21.735Z,99330.22
2023-04-24T15:01:49.579Z,99332.75
2023-04-24T15:04:17.894Z,99343.13
2023-04-24T15:06:48.013Z,99338.22
2023-04-24T15:09:15.776Z,99342.06
2023-04-24T15:11:43.901Z,99332.03
2023-04-24T15:14:12.332Z,99340.44
2023-04-24T15:16:41.708Z,99333.16
2023-04-24T15:19:10.174Z,99338.88
2023-04-24T15:21:38.753Z,99342.19
2023-04-24T15:24:07.025Z,99342.09
2023-04-24T15:26:34.899Z,99335.88
2023-04-24T15:29:02.694Z,99337.03
2023-04-24T15:31:30.935Z,99331.34
2023-04-24T15:34:00.011Z,99335.97
2023-04-24T15:36:29.488Z,99328.03
2023-04-24T15:38:57.044Z,99335.19
2023-04-24T15:41:24.755Z,99335.19
2023-04-24T15:43:52.469Z,99331.72
2023-04-24T15:46:20.100Z,99333.09
2023-04-24T15:48:47.790Z,99332.91
2023-04-24T15:51:16.886Z,99335.56
2023-04-24T15:53:44.549Z,99333.63
2023-04-24T15:56:12.260Z,99350.13
2023-04-24T15:58:39.998Z,99340.72
2023-04-24T16:01:07.821Z,99344.56
2023-04-24T16:03:36.052Z,99344.81
2023-04-24T16:06:04.127Z,99345.06
2023-04-24T16:08:33.036Z,99351.50
2023-04-24T16:11:00.660Z,99363.00
2023-04-24T16:13:29.049Z,99357.72
2023-04-24T16:15:56.794Z,99357.25
2023-04-24T16:18:24.544Z,99355.47
2023-04-24T16:20:52.311Z,99361.56
2023-04-24T16:23:19.886Z,99347.91
2023-04-24T16:25:48.906Z,99351.78
2023-04-24T16:28:17.004Z,99353.72
2023-04-24T16:30:44.806Z,99351.44
2023-04-24T16:33:12.477Z,99354.38
2023-04-24T16:35:47.770Z,99352.25
2023-04-24T16:38:19.392Z,99359.94
2023-04-24T16:41:11.221Z,99357.31
2023-04-24T16:43:39.261Z,99358.72
2023-04-24T16:46:11.129Z,99361.81
2023-04-24T16:48:40.064Z,99366.59
2023-04-24T16:51:07.805Z,99359.78
2023-04-24T16:53:36.008Z,99361.81
2023-04-24T16:56:05.279Z,99359.56
2023-04-24T16:58:33.061Z,99357.81
2023-04-24T17:01:00.727Z,99359.56
2023-04-24T17:03:28.671Z,99360.63
2023-04-24T17:05:57.613Z,99360.75
2023-04-24T17:08:25.628Z,99361.34
2023-04-24T17:10:54.003Z,99359.81
2023-04-24T17:13:22.924Z,99365.69
2023-04-24T17:15:50.718Z,99371.19
2023-04-24T17:18:18.759Z,99363.06
2023-04-24T17:20:46.347Z,99364.16
2023-04-24T17:23:16.743Z,99367.91
2023-04-24T17:25:44.823Z,99365.09
2023-04-24T17:28:21.526Z,99371.91
2023-04-24T17:30:50.841Z,99372.50
2023-04-24T17:33:18.608Z,99364.06
2023-04-24T17:35:47.997Z,99373.31
2023-04-24T17:38:16.131Z,99375.63
2023-04-24T17:40:44.626Z,99374.13
2023-04-24T17:43:12.542Z,99371.66
2023-04-24T17:45:40.639Z,99374.56
2023-04-24T17:48:09.726Z,99372.94
2023-04-24T17:50:37.500Z,99376.09
2023-04-24T17:53:05.265Z,99374.88
2023-04-24T17:55:34.353Z,99370.53
2023-04-24T17:58:03.009Z,99372.38
2023-04-24T18:00:31.542Z,99374.66
2023-04-24T18:03:01.540Z,99380.47
2023-04-24T18:05:34.911Z,99386.31
2023-04-24T18:08:06.098Z,99383.50
2023-04-24T18:10:36.360Z,99388.19
2023-04-24T18:13:09.528Z,99394.84
2023-04-24T18:15:42.531Z,99391.72
2023-04-24T18:18:11.543Z,99399.19
2023-04-24T18:20:40.718Z,99405.03
2023-04-24T18:23:10.448Z,99415.81
2023-04-24T18:25:41.156Z,99420.97
2023-04-24T18:28:08.919Z,99419.78
2023-04-24T18:30:36.884Z,99428.06
2023-04-24T18:33:05.614Z,99437.16
2023-04-24T18:35:34.954Z,99430.38
2023-04-24T18:38:05.757Z,99430.81
2023-04-24T18:40:35.296Z,99444.50
2023-04-24T18:43:05.488Z,99441.47
2023-04-24T18:45:33.544Z,99445.22
2023-04-24T18:48:01.475Z,99449.41
2023-04-24T18:50:31.769Z,99446.44
2023-04-24T18:52:59.666Z,99460.25
2023-04-24T18:55:28.786Z,99459.25
2023-04-24T18:57:56.483Z,99466.50
2023-04-24T19:00:24.161Z,99477.81
2023-04-24T19:02:54.712Z,99477.38
2023-04-24T19:05:22.430Z,99477.44
2023-04-24T19:07:50.688Z,99485.06
2023-04-24T19:10:18.496Z,99489.16
2023-04-24T19:12:56.381Z,99478.03
2023-04-24T19:15:24.581Z,99486.03
2023-04-24T19:17:52.561Z,99495.50
2023-04-24T19:20:20.768Z,99501.50
2023-04-24T19:22:48.643Z,99504.88
2023-04-24T19:25:16.851Z,99510.88
2023-04-24T19:27:44.707Z,99510.41
2023-04-24T19:30:14.398Z,99507.22
2023-04-24T19:32:48.057Z,99497.97
2023-04-24T19:35:19.045Z,99505.88
2023-04-24T19:37:48.600Z,99515.00
2023-04-24T19:40:16.463Z,99515.22
2023-04-24T19:42:44.828Z,99517.09
2023-04-24T19:45:14.371Z,99510.31
2023-04-24T19:47:43.722Z,99517.91
2023-04-24T19:50:11.854Z,99518.13
2023-04-24T19:52:39.766Z,99515.44
2023-04-24T19:55:09.115Z,99516.91
2023-04-24T19:57:37.406Z,99527.81
2023-04-24T20:00:08.082Z,99526.78
2023-04-24T20:02:41.349Z,99532.75
2023-04-24T20:05:10.823Z,99533.78
2023-04-24T20:07:38.594Z,99529.69
2023-04-24T20:10:08.398Z,99539.59
2023-04-24T20:12:36.363Z,99537.94
2023-04-24T20:15:04.794Z,99532.38
2023-04-24T20:17:32.466Z,99541.88
2023-04-24T20:20:01.508Z,99540.66
2023-04-24T20:22:29.138Z,99527.44
2023-04-24T20:24:56.869Z,99536.50
2023-04-24T20:27:24.582Z,99534.47
2023-04-24T20:29:52.258Z,99528.06
2023-04-24T20:32:21.007Z,99525.38
2023-04-24T20:34:48.730Z,99523.09
2023-04-24T20:37:17.649Z,99526.81
2023-04-24T20:39:46.236Z,99522.06
2023-04-24T20:42:13.904Z,99534.44
2023-04-24T20:44:41.524Z,99520.84
2023-04-24T20:47:09.866Z,99519.03
2023-04-24T20:49:37.586Z,99520.66
2023-04-24T20:52:05.320Z,99520.47
2023-04-24T20:54:34.347Z,99512.84
2023-04-24T20:57:03.743Z,99517.16
2023-04-24T20:59:31.619Z,99517.94
2023-04-24T21:01:59.254Z,99515.28
2023-04-24T21:04:26.898Z,99520.84
2023-04-24T21:06:54.795Z,99519.78
2023-04-24T21:09:22.469Z,99521.59
2023-04-24T21:11:51.409Z,99522.63
2023-04-24T21:14:19.018Z,99519.78
2023-04-24T21:16:46.986Z,99521.22
2023-04-24T21:19:14.613Z,99512.81
2023-04-24T21:21:42.550Z,99512.81
2023-04-24T21:24:10.273Z,99505.78
2023-04-24T21:26:37.941Z,99495.69
2023-04-24T21:29:09.715Z,99508.47
2023-04-24T21:31:37.853Z,99502.91
2023-04-24T21:34:05.842Z,99503.50
2023-04-24T21:36:33.527Z,99500.63
2023-04-24T21:39:01.304Z,99501.66
2023-04-24T21:41:29.249Z,99501.25
2023-04-24T21:43:57.083Z,99502.28
2023-04-24T21:46:26.410Z,99495.72
2023-04-24T21:48:54.146Z,99498.56
2023-04-24T21:51:21.850Z,99493.44
2023-04-24T21:53:49.962Z,99496.53
2023-04-24T21:56:18.184Z,99494.69
2023-04-24T21:58:46.858Z,99491.38
2023-04-24T22:01:15.609Z,99492.19
2023-04-24T22:03:44.810Z,99495.72
2023-04-24T22:06:12.515Z,99495.72
2023-04-24T22:08:40.129Z,99489.72
2023-04-24T22:11:19.908Z,99491.19
2023-04-24T22:13:54.135Z,99488.91
2023-04-24T22:16:23.671Z,99487.69
2023-04-24T22:18:55.164Z,99481.66
2023-04-24T22:21:23.497Z,99484.38
2023-04-24T22:23:51.561Z,99481.50
2023-04-24T22:26:19.604Z,99483.97
2023-04-24T22:28:48.310Z,99486.66
2023-04-24T22:31:16.457Z,99487.66
2023-04-24T22:33:47.329Z,99488.91
2023-04-24T22:36:16.909Z,99492.03
2023-04-24T22:38:44.599Z,99494.09
2023-04-24T22:41:12.386Z,99490.78
2023-04-24T22:43:40.233Z,99501.09
2023-04-24T22:46:07.820Z,99491.59
2023-04-24T22:48:36.135Z,99494.06
2023-04-24T22:51:03.774Z,99490.75
2023-04-24T22:53:32.817Z,99482.94
2023-04-24T22:56:01.069Z,99482.50
2023-04-24T22:58:29.417Z,99492.44
2023-04-24T23:00:57.059Z,99484.16
2023-04-24T23:03:25.217Z,99487.88
2023-04-24T23:05:52.907Z,99484.63
2023-04-24T23:08:20.444Z,99494.91
2023-04-24T23:10:49.611Z,99486.00
2023-04-24T23:13:17.376Z,99488.50
2023-04-24T23:15:45.281Z,99489.13
2023-04-24T23:18:12.866Z,99489.13
2023-04-24T23:20:40.719Z,99493.66
2023-04-24T23:23:08.280Z,99499.00
2023-04-24T23:25:35.834Z,99490.56
2023-04-24T23:28:05.090Z,99486.03
2023-04-24T23:30:32.942Z,99480.06
2023-04-24T23:33:00.560Z,99485.81
2023-04-24T23:35:28.377Z,99484.16
2023-04-24T23:37:56.627Z,99478.41
2023-04-24T23:40:24.563Z,99479.41
2023-04-24T23:43:03.635Z,99473.66
2023-04-24T23:45:36.019Z,99469.72
2023-04-24T23:48:04.600Z,99469.34
2023-04-24T23:50:32.478Z,99463.56
2023-04-24T23:53:00.191Z,99464.59
2023-04-24T23:55:27.992Z,99467.28
2023-04-24T23:57:55.592Z,99462.13
